Kezdőlap
METAR-TAF:

METAR-TAF

Repülőterek :

Schenck Field

Clarinda, Iowa, Amerikai Egyesült Államok

földrajzi szélesség: 40-43N, földrajzi hosszúság: 095-02W, magasság: 303 m

Jelenlegi meteorológiai megfigyelések

A jelentés 16 perccel ezelõtt készült, 17:15 UTC
Déli szél 7 kt
Hőmérséklet 30°C
Páratartalom 66%
Légköri nyomás 1017 hPa
Látótávolság: 16.1 km
Kevés felhő 3400 lábon

METAR: KICL 131715Z AUTO 19007KT 10SM FEW034 30/23 A3002 RMK AO2

Idő: 12:31 (17:31 UTC)


TAF: hiányzik

Meteorológiai megfigyelések és előrejelzések több, mint 4000 repülőtéren (METAR és TAF jelentéseket).

A térképen piros és sárga pontok jelzik az elérhető meteorológiai állomásokat.

Mozgassa az egeret a pont fölött, hogy megjelenjen az állomás neve.

Azután kattintson az időjárási megfigyelések és előrejelzések megtekintéséhez.

A térkép megváltoztatása: kattintson a fekete keresztel jelölt zöld gombra ráközelítéshez, a vonallal jelölt zöld gombra távolításhoz, vagy a zöld nyilakra a szomszédos térképek eléréséhez.


METAR-TAF: